createdAt,value
2022-09-06T00:00:00.114Z,0.00
2022-09-06T00:05:00.033Z,0.00
2022-09-06T00:09:59.963Z,0.00
2022-09-06T00:14:59.893Z,0.00
2022-09-06T00:19:59.994Z,0.00
2022-09-06T00:24:59.766Z,0.00
2022-09-06T00:29:59.774Z,0.00
2022-09-06T00:34:59.635Z,0.00
2022-09-06T00:39:59.615Z,0.00
2022-09-06T00:44:59.496Z,0.00
2022-09-06T00:49:59.450Z,0.00
2022-09-06T00:54:59.403Z,0.00
2022-09-06T00:59:59.331Z,0.00
2022-09-06T01:04:59.258Z,0.00
2022-09-06T01:09:59.190Z,0.00
2022-09-06T01:14:59.129Z,0.00
2022-09-06T01:19:59.052Z,0.00
2022-09-06T01:24:59.201Z,0.00
2022-09-06T01:29:58.929Z,0.00
2022-09-06T01:34:58.850Z,0.00
2022-09-06T01:39:58.831Z,0.00
2022-09-06T01:44:58.742Z,0.00
2022-09-06T01:49:58.654Z,0.00
2022-09-06T01:54:58.581Z,0.00
2022-09-06T01:59:58.551Z,0.00
2022-09-06T02:04:58.461Z,0.00
2022-09-06T02:09:58.407Z,0.00
2022-09-06T02:14:58.334Z,0.00
2022-09-06T02:19:58.260Z,0.00
2022-09-06T02:24:58.195Z,0.00
2022-09-06T02:29:58.291Z,0.00
2022-09-06T02:34:58.044Z,0.00
2022-09-06T02:39:58.047Z,0.00
2022-09-06T02:44:57.915Z,0.00
2022-09-06T02:49:57.856Z,0.00
2022-09-06T02:54:57.807Z,0.00
2022-09-06T02:59:57.734Z,0.00
2022-09-06T03:04:57.668Z,0.00
2022-09-06T03:09:57.600Z,0.00
2022-09-06T03:14:57.536Z,0.00
2022-09-06T03:19:57.469Z,0.00
2022-09-06T03:24:57.448Z,0.00
2022-09-06T03:29:57.349Z,0.00
2022-09-06T03:34:57.427Z,0.00
2022-09-06T03:39:57.267Z,0.00
2022-09-06T03:44:57.163Z,0.00
2022-09-06T03:49:57.066Z,0.00
2022-09-06T03:54:56.999Z,0.00
2022-09-06T03:59:56.939Z,0.00
2022-09-06T04:04:56.859Z,0.00
2022-09-06T04:09:56.813Z,5.62
2022-09-06T04:14:56.736Z,11.25
2022-09-06T04:19:56.672Z,22.50
2022-09-06T04:24:56.632Z,33.75
2022-09-06T04:29:56.542Z,50.62
2022-09-06T04:34:56.482Z,84.38
2022-09-06T04:39:56.600Z,112.50
2022-09-06T04:44:56.352Z,140.62
2022-09-06T04:49:56.290Z,168.75
2022-09-06T04:54:56.209Z,185.62
2022-09-06T04:59:56.156Z,241.88
2022-09-06T05:04:56.076Z,264.38
2022-09-06T05:09:56.023Z,258.75
2022-09-06T05:14:55.971Z,236.25
2022-09-06T05:19:55.896Z,253.12
2022-09-06T05:24:55.816Z,320.62
2022-09-06T05:29:55.765Z,416.25
2022-09-06T05:34:55.685Z,551.25
2022-09-06T05:39:55.653Z,669.38
2022-09-06T05:44:55.565Z,675.00
2022-09-06T05:49:55.486Z,697.50
2022-09-06T05:54:55.426Z,731.25
2022-09-06T05:59:55.369Z,877.50
2022-09-06T06:04:55.314Z,2148.75
2022-09-06T06:09:55.261Z,1878.75
2022-09-06T06:14:55.181Z,1856.25
2022-09-06T06:19:55.128Z,911.25
2022-09-06T06:24:55.063Z,483.75
2022-09-06T06:29:54.973Z,455.62
2022-09-06T06:34:54.916Z,500.62
2022-09-06T06:39:54.902Z,556.88
2022-09-06T06:44:54.786Z,596.25
2022-09-06T06:49:54.895Z,601.88
2022-09-06T06:54:54.646Z,635.62
2022-09-06T06:59:54.577Z,641.25
2022-09-06T07:04:54.528Z,641.25
2022-09-06T07:14:55.389Z,815.62
2022-09-06T07:24:55.260Z,630.00
2022-09-06T07:29:54.203Z,540.00
2022-09-06T07:34:54.233Z,466.88
2022-09-06T07:39:54.156Z,382.50
2022-09-06T07:44:53.997Z,331.88
2022-09-06T07:54:55.026Z,303.75
2022-09-06T07:59:53.846Z,298.12
2022-09-06T08:04:53.762Z,286.88
2022-09-06T08:09:53.748Z,270.00
2022-09-06T08:14:53.687Z,303.75
2022-09-06T08:19:53.601Z,365.62
2022-09-06T08:24:53.478Z,393.75
2022-09-06T08:29:53.430Z,427.50
2022-09-06T08:34:53.355Z,483.75
2022-09-06T08:39:53.326Z,528.75
2022-09-06T08:49:53.165Z,826.88
2022-09-06T08:54:53.081Z,1080.00
2022-09-06T08:59:53.183Z,1147.50
2022-09-06T09:04:52.953Z,1119.38
2022-09-06T09:09:52.896Z,1068.75
2022-09-06T09:14:52.829Z,978.75
2022-09-06T09:19:52.779Z,973.12
2022-09-06T09:24:52.743Z,1068.75
2022-09-06T09:34:53.618Z,765.00
2022-09-06T09:39:52.564Z,635.62
2022-09-06T09:44:52.460Z,607.50
2022-09-06T09:49:52.444Z,630.00
2022-09-06T09:54:52.333Z,725.62
2022-09-06T09:59:52.253Z,697.50
2022-09-06T10:04:52.365Z,759.38
2022-09-06T10:09:52.142Z,793.12
2022-09-06T10:14:52.066Z,798.75
2022-09-06T10:19:52.034Z,843.75
2022-09-06T10:24:51.946Z,832.50
2022-09-06T10:29:51.872Z,781.88
2022-09-06T10:34:51.834Z,748.12
2022-09-06T10:39:51.812Z,731.25
2022-09-06T10:44:51.671Z,736.88
2022-09-06T10:49:51.621Z,691.88
2022-09-06T10:54:51.564Z,641.25
2022-09-06T10:59:52.019Z,669.38
2022-09-06T11:09:52.395Z,793.12
2022-09-06T11:14:51.320Z,759.38
2022-09-06T11:19:51.291Z,731.25
2022-09-06T11:24:51.177Z,714.38
2022-09-06T11:29:51.118Z,663.75
2022-09-06T11:34:51.057Z,646.88
2022-09-06T11:44:51.951Z,579.38
2022-09-06T11:49:50.880Z,500.62
2022-09-06T11:54:50.844Z,427.50
2022-09-06T11:59:50.764Z,500.62
2022-09-06T12:04:50.686Z,528.75
2022-09-06T12:09:50.627Z,545.62
2022-09-06T12:14:50.673Z,579.38
2022-09-06T12:19:50.486Z,596.25
2022-09-06T12:24:50.417Z,540.00
2022-09-06T12:29:50.359Z,607.50
2022-09-06T12:39:51.322Z,680.62
2022-09-06T12:44:50.172Z,562.50
2022-09-06T12:49:50.196Z,495.00
2022-09-06T12:54:50.026Z,607.50
2022-09-06T12:59:49.964Z,427.50
2022-09-06T13:04:49.892Z,376.88
2022-09-06T13:09:49.828Z,331.88
2022-09-06T13:14:49.767Z,264.38
2022-09-06T13:19:49.887Z,202.50
2022-09-06T13:24:49.692Z,157.50
2022-09-06T13:29:49.619Z,123.75
2022-09-06T13:34:49.550Z,73.12
2022-09-06T13:39:49.521Z,39.38
2022-09-06T13:44:49.381Z,16.88
2022-09-06T13:49:49.312Z,16.88
2022-09-06T13:54:49.245Z,28.12
2022-09-06T13:59:49.202Z,50.62
2022-09-06T14:04:49.117Z,73.12
2022-09-06T14:09:49.053Z,84.38
2022-09-06T14:14:48.987Z,101.25
2022-09-06T14:19:48.946Z,118.12
2022-09-06T14:24:48.895Z,146.25
2022-09-06T14:29:48.813Z,185.62
2022-09-06T14:34:48.718Z,208.12
2022-09-06T14:39:48.701Z,213.75
2022-09-06T14:44:48.584Z,230.62
2022-09-06T14:49:48.541Z,236.25
2022-09-06T14:54:48.448Z,247.50
2022-09-06T14:59:48.406Z,180.00
2022-09-06T15:04:48.335Z,140.62
2022-09-06T15:09:48.253Z,146.25
2022-09-06T15:14:48.193Z,163.12
2022-09-06T15:19:48.136Z,174.38
2022-09-06T15:24:48.080Z,163.12
2022-09-06T15:29:48.016Z,157.50
2022-09-06T15:34:47.954Z,129.38
2022-09-06T15:39:47.940Z,95.62
2022-09-06T15:44:47.826Z,84.38
2022-09-06T15:49:47.757Z,78.75
2022-09-06T15:54:47.657Z,73.12
2022-09-06T15:59:47.617Z,67.50
2022-09-06T16:04:47.527Z,61.88
2022-09-06T16:09:47.476Z,61.88
2022-09-06T16:14:47.641Z,67.50
2022-09-06T16:19:47.340Z,78.75
2022-09-06T16:24:47.272Z,78.75
2022-09-06T16:29:47.285Z,73.12
2022-09-06T16:34:47.370Z,61.88
2022-09-06T16:39:47.110Z,50.62
2022-09-06T16:44:47.044Z,56.25
2022-09-06T16:49:46.962Z,61.88
2022-09-06T16:54:46.881Z,67.50
2022-09-06T16:59:46.817Z,73.12
2022-09-06T17:04:46.775Z,78.75
2022-09-06T17:09:46.684Z,67.50
2022-09-06T17:14:46.616Z,45.00
2022-09-06T17:19:46.569Z,33.75
2022-09-06T17:24:46.642Z,22.50
2022-09-06T17:29:46.449Z,16.88
2022-09-06T17:34:46.394Z,11.25
2022-09-06T17:39:46.454Z,5.62
2022-09-06T17:44:46.267Z,0.00
2022-09-06T17:49:46.190Z,0.00
2022-09-06T17:54:46.130Z,0.00
2022-09-06T17:59:46.053Z,0.00
2022-09-06T18:04:46.028Z,0.00
2022-09-06T18:09:46.019Z,0.00
2022-09-06T18:14:45.892Z,0.00
2022-09-06T18:19:45.761Z,0.00
2022-09-06T18:24:45.684Z,0.00
2022-09-06T18:29:45.685Z,0.00
2022-09-06T18:34:45.589Z,0.00
2022-09-06T18:39:45.556Z,0.00
2022-09-06T18:44:45.614Z,0.00
2022-09-06T18:49:45.375Z,0.00
2022-09-06T18:54:45.338Z,0.00
2022-09-06T18:59:45.247Z,0.00
2022-09-06T19:04:45.167Z,0.00
2022-09-06T19:09:45.155Z,0.00
2022-09-06T19:14:45.057Z,0.00
2022-09-06T19:19:45.007Z,0.00
2022-09-06T19:24:44.918Z,0.00
2022-09-06T19:29:44.829Z,0.00
2022-09-06T19:34:44.769Z,0.00
2022-09-06T19:39:44.736Z,0.00
2022-09-06T19:44:44.630Z,0.00
2022-09-06T19:49:44.592Z,0.00
2022-09-06T19:54:44.494Z,0.00
2022-09-06T19:59:44.442Z,0.00
2022-09-06T20:04:44.372Z,0.00
2022-09-06T20:09:44.311Z,0.00
2022-09-06T20:14:44.251Z,0.00
2022-09-06T20:19:44.178Z,0.00
2022-09-06T20:24:44.103Z,0.00
2022-09-06T20:29:44.055Z,0.00
2022-09-06T20:34:43.973Z,0.00
2022-09-06T20:39:43.953Z,0.00
2022-09-06T20:44:43.855Z,0.00
2022-09-06T20:49:43.801Z,0.00
2022-09-06T20:54:43.715Z,0.00
2022-09-06T20:59:43.654Z,0.00
2022-09-06T21:04:43.579Z,0.00
2022-09-06T21:09:43.518Z,0.00
2022-09-06T21:14:43.446Z,0.00
2022-09-06T21:19:43.377Z,0.00
2022-09-06T21:24:43.305Z,0.00
2022-09-06T21:29:43.269Z,0.00
2022-09-06T21:34:43.171Z,0.00
2022-09-06T21:39:43.150Z,0.00
2022-09-06T21:44:43.043Z,0.00
2022-09-06T21:49:42.981Z,0.00
2022-09-06T21:54:42.919Z,0.00
2022-09-06T21:59:42.850Z,0.00
2022-09-06T22:04:42.787Z,0.00
2022-09-06T22:09:42.712Z,0.00
2022-09-06T22:14:42.650Z,0.00
2022-09-06T22:19:42.612Z,0.00
2022-09-06T22:24:42.532Z,0.00
2022-09-06T22:29:42.454Z,0.00
2022-09-06T22:34:42.423Z,0.00
2022-09-06T22:39:42.347Z,0.00
2022-09-06T22:44:42.262Z,0.00
2022-09-06T22:49:42.184Z,0.00
2022-09-06T22:54:42.133Z,0.00
2022-09-06T22:59:42.070Z,0.00
2022-09-06T23:04:42.071Z,0.00
2022-09-06T23:09:41.944Z,0.00
2022-09-06T23:14:41.877Z,0.00
2022-09-06T23:19:41.819Z,0.00
2022-09-06T23:24:41.790Z,0.00
2022-09-06T23:29:41.675Z,0.00
2022-09-06T23:34:41.629Z,0.00
2022-09-06T23:39:41.564Z,0.00
2022-09-06T23:44:41.487Z,0.00
2022-09-06T23:49:41.424Z,0.00
2022-09-06T23:54:41.359Z,0.00
2022-09-06T23:59:41.284Z,0.00
